sensor_id;sensor_type;location;lat;lon;timestamp;P1;durP1;ratioP1;P2;durP2;ratioP2
35969;SDS011;22448;51.298;6.430;2022-08-25T00:01:56;7.43;;;2.60;;
35969;SDS011;22448;51.298;6.430;2022-08-25T00:04:27;9.48;;;2.60;;
35969;SDS011;22448;51.298;6.430;2022-08-25T00:06:55;10.18;;;3.10;;
35969;SDS011;22448;51.298;6.430;2022-08-25T00:09:28;9.07;;;2.97;;
35969;SDS011;22448;51.298;6.430;2022-08-25T00:11:57;7.43;;;2.90;;
35969;SDS011;22448;51.298;6.430;2022-08-25T00:14:27;6.10;;;3.00;;
35969;SDS011;22448;51.298;6.430;2022-08-25T00:16:57;6.68;;;3.00;;
35969;SDS011;22448;51.298;6.430;2022-08-25T00:19:25;8.05;;;2.92;;
35969;SDS011;22448;51.298;6.430;2022-08-25T00:24:24;6.22;;;2.67;;
35969;SDS011;22448;51.298;6.430;2022-08-25T00:26:51;11.02;;;3.53;;
35969;SDS011;22448;51.298;6.430;2022-08-25T00:29:22;6.13;;;2.80;;
35969;SDS011;22448;51.298;6.430;2022-08-25T00:31:54;6.85;;;2.92;;
35969;SDS011;22448;51.298;6.430;2022-08-25T00:34:23;4.82;;;2.72;;
35969;SDS011;22448;51.298;6.430;2022-08-25T00:36:53;7.88;;;2.65;;
35969;SDS011;22448;51.298;6.430;2022-08-25T00:39:21;8.50;;;2.80;;
35969;SDS011;22448;51.298;6.430;2022-08-25T00:41:49;7.78;;;3.10;;
35969;SDS011;22448;51.298;6.430;2022-08-25T00:44:19;6.43;;;2.95;;
35969;SDS011;22448;51.298;6.430;2022-08-25T00:46:51;8.73;;;3.20;;
35969;SDS011;22448;51.298;6.430;2022-08-25T00:49:20;10.48;;;3.22;;
35969;SDS011;22448;51.298;6.430;2022-08-25T00:54:31;5.35;;;2.80;;
35969;SDS011;22448;51.298;6.430;2022-08-25T00:57:02;4.95;;;2.92;;
35969;SDS011;22448;51.298;6.430;2022-08-25T00:59:32;8.35;;;3.05;;
35969;SDS011;22448;51.298;6.430;2022-08-25T01:02:00;6.28;;;2.80;;
35969;SDS011;22448;51.298;6.430;2022-08-25T01:04:28;6.85;;;2.65;;
35969;SDS011;22448;51.298;6.430;2022-08-25T01:06:55;8.57;;;3.10;;
35969;SDS011;22448;51.298;6.430;2022-08-25T01:09:25;10.05;;;2.88;;
35969;SDS011;22448;51.298;6.430;2022-08-25T01:11:53;5.03;;;2.95;;
35969;SDS011;22448;51.298;6.430;2022-08-25T01:14:21;8.52;;;2.85;;
35969;SDS011;22448;51.298;6.430;2022-08-25T01:16:51;11.25;;;2.67;;
35969;SDS011;22448;51.298;6.430;2022-08-25T01:19:19;6.70;;;2.72;;
35969;SDS011;22448;51.298;6.430;2022-08-25T01:21:48;12.15;;;2.85;;
35969;SDS011;22448;51.298;6.430;2022-08-25T01:27:16;6.65;;;2.45;;
35969;SDS011;22448;51.298;6.430;2022-08-25T01:29:43;10.45;;;2.70;;
35969;SDS011;22448;51.298;6.430;2022-08-25T01:32:11;5.15;;;2.33;;
35969;SDS011;22448;51.298;6.430;2022-08-25T01:34:39;13.05;;;2.60;;
35969;SDS011;22448;51.298;6.430;2022-08-25T01:37:09;6.57;;;2.60;;
35969;SDS011;22448;51.298;6.430;2022-08-25T01:39:39;11.18;;;2.50;;
35969;SDS011;22448;51.298;6.430;2022-08-25T01:44:59;13.52;;;2.90;;
35969;SDS011;22448;51.298;6.430;2022-08-25T01:47:26;5.57;;;2.40;;
35969;SDS011;22448;51.298;6.430;2022-08-25T01:49:53;10.30;;;2.78;;
35969;SDS011;22448;51.298;6.430;2022-08-25T01:52:27;7.82;;;2.30;;
35969;SDS011;22448;51.298;6.430;2022-08-25T01:54:54;8.55;;;2.70;;
35969;SDS011;22448;51.298;6.430;2022-08-25T01:57:21;7.97;;;2.35;;
35969;SDS011;22448;51.298;6.430;2022-08-25T01:59:49;6.30;;;2.33;;
35969;SDS011;22448;51.298;6.430;2022-08-25T02:02:16;3.72;;;2.60;;
35969;SDS011;22448;51.298;6.430;2022-08-25T02:04:44;6.25;;;2.67;;
35969;SDS011;22448;51.298;6.430;2022-08-25T02:07:11;6.47;;;2.65;;
35969;SDS011;22448;51.298;6.430;2022-08-25T02:09:38;8.80;;;2.67;;
35969;SDS011;22448;51.298;6.430;2022-08-25T02:12:06;7.65;;;2.85;;
35969;SDS011;22448;51.298;6.430;2022-08-25T02:14:35;5.88;;;2.55;;
35969;SDS011;22448;51.298;6.430;2022-08-25T02:17:02;4.63;;;2.45;;
35969;SDS011;22448;51.298;6.430;2022-08-25T02:19:30;3.78;;;2.30;;
35969;SDS011;22448;51.298;6.430;2022-08-25T02:21:58;8.18;;;2.65;;
35969;SDS011;22448;51.298;6.430;2022-08-25T02:24:25;8.18;;;2.63;;
35969;SDS011;22448;51.298;6.430;2022-08-25T02:26:52;8.05;;;2.70;;
35969;SDS011;22448;51.298;6.430;2022-08-25T02:29:20;6.97;;;2.70;;
35969;SDS011;22448;51.298;6.430;2022-08-25T02:31:47;7.65;;;3.50;;
35969;SDS011;22448;51.298;6.430;2022-08-25T02:34:15;8.63;;;2.80;;
35969;SDS011;22448;51.298;6.430;2022-08-25T02:36:42;5.07;;;2.67;;
35969;SDS011;22448;51.298;6.430;2022-08-25T02:39:09;11.43;;;3.00;;
35969;SDS011;22448;51.298;6.430;2022-08-25T02:41:37;10.00;;;2.72;;
35969;SDS011;22448;51.298;6.430;2022-08-25T02:44:05;7.75;;;2.78;;
35969;SDS011;22448;51.298;6.430;2022-08-25T02:46:33;7.97;;;2.38;;
35969;SDS011;22448;51.298;6.430;2022-08-25T02:49:02;4.53;;;2.38;;
35969;SDS011;22448;51.298;6.430;2022-08-25T02:51:29;8.57;;;2.42;;
35969;SDS011;22448;51.298;6.430;2022-08-25T02:53:58;6.72;;;2.50;;
35969;SDS011;22448;51.298;6.430;2022-08-25T02:56:28;5.15;;;2.58;;
35969;SDS011;22448;51.298;6.430;2022-08-25T02:58:56;8.13;;;2.92;;
35969;SDS011;22448;51.298;6.430;2022-08-25T03:01:22;5.95;;;3.00;;
35969;SDS011;22448;51.298;6.430;2022-08-25T03:03:55;9.95;;;2.63;;
35969;SDS011;22448;51.298;6.430;2022-08-25T03:06:23;8.68;;;2.58;;
35969;SDS011;22448;51.298;6.430;2022-08-25T03:08:50;13.40;;;2.67;;
35969;SDS011;22448;51.298;6.430;2022-08-25T03:11:18;8.70;;;2.42;;
35969;SDS011;22448;51.298;6.430;2022-08-25T03:13:46;5.25;;;2.58;;
35969;SDS011;22448;51.298;6.430;2022-08-25T03:16:16;5.85;;;2.17;;
35969;SDS011;22448;51.298;6.430;2022-08-25T03:18:44;5.38;;;2.55;;
35969;SDS011;22448;51.298;6.430;2022-08-25T03:21:11;10.30;;;2.55;;
35969;SDS011;22448;51.298;6.430;2022-08-25T03:23:41;8.90;;;2.80;;
35969;SDS011;22448;51.298;6.430;2022-08-25T03:26:09;8.07;;;2.58;;
35969;SDS011;22448;51.298;6.430;2022-08-25T03:29:11;9.27;;;2.57;;
35969;SDS011;22448;51.298;6.430;2022-08-25T03:31:39;6.30;;;2.53;;
35969;SDS011;22448;51.298;6.430;2022-08-25T03:34:13;9.20;;;2.80;;
35969;SDS011;22448;51.298;6.430;2022-08-25T03:36:45;8.85;;;2.90;;
35969;SDS011;22448;51.298;6.430;2022-08-25T03:39:13;7.45;;;2.80;;
35969;SDS011;22448;51.298;6.430;2022-08-25T03:41:41;6.68;;;2.78;;
35969;SDS011;22448;51.298;6.430;2022-08-25T03:44:09;7.28;;;2.75;;
35969;SDS011;22448;51.298;6.430;2022-08-25T03:46:37;10.18;;;2.72;;
35969;SDS011;22448;51.298;6.430;2022-08-25T03:49:13;8.98;;;3.22;;
35969;SDS011;22448;51.298;6.430;2022-08-25T03:51:42;8.95;;;3.42;;
35969;SDS011;22448;51.298;6.430;2022-08-25T03:54:15;4.95;;;2.67;;
35969;SDS011;22448;51.298;6.430;2022-08-25T03:56:45;8.07;;;3.00;;
35969;SDS011;22448;51.298;6.430;2022-08-25T03:59:12;7.50;;;3.45;;
35969;SDS011;22448;51.298;6.430;2022-08-25T04:01:40;5.15;;;3.30;;
35969;SDS011;22448;51.298;6.430;2022-08-25T04:04:08;6.00;;;3.30;;
35969;SDS011;22448;51.298;6.430;2022-08-25T04:06:37;7.60;;;3.85;;
35969;SDS011;22448;51.298;6.430;2022-08-25T04:09:05;10.90;;;3.53;;
35969;SDS011;22448;51.298;6.430;2022-08-25T04:11:33;5.65;;;3.10;;
35969;SDS011;22448;51.298;6.430;2022-08-25T04:14:00;10.52;;;3.25;;
35969;SDS011;22448;51.298;6.430;2022-08-25T04:16:29;7.97;;;2.97;;
35969;SDS011;22448;51.298;6.430;2022-08-25T04:18:59;10.52;;;3.63;;
35969;SDS011;22448;51.298;6.430;2022-08-25T04:21:27;8.88;;;3.75;;
35969;SDS011;22448;51.298;6.430;2022-08-25T04:23:55;6.75;;;2.85;;
35969;SDS011;22448;51.298;6.430;2022-08-25T04:26:24;6.85;;;3.30;;
35969;SDS011;22448;51.298;6.430;2022-08-25T04:28:55;7.53;;;3.58;;
35969;SDS011;22448;51.298;6.430;2022-08-25T04:31:23;8.70;;;3.42;;
35969;SDS011;22448;51.298;6.430;2022-08-25T04:33:50;11.27;;;3.00;;
35969;SDS011;22448;51.298;6.430;2022-08-25T04:36:18;10.30;;;3.28;;
35969;SDS011;22448;51.298;6.430;2022-08-25T04:38:45;10.95;;;3.35;;
35969;SDS011;22448;51.298;6.430;2022-08-25T04:41:15;6.78;;;3.53;;
35969;SDS011;22448;51.298;6.430;2022-08-25T04:43:45;8.30;;;3.42;;
35969;SDS011;22448;51.298;6.430;2022-08-25T04:46:14;9.45;;;3.25;;
35969;SDS011;22448;51.298;6.430;2022-08-25T04:48:46;9.43;;;3.35;;
35969;SDS011;22448;51.298;6.430;2022-08-25T04:51:15;8.18;;;3.55;;
35969;SDS011;22448;51.298;6.430;2022-08-25T04:53:44;7.90;;;3.63;;
35969;SDS011;22448;51.298;6.430;2022-08-25T04:56:13;9.02;;;3.58;;
35969;SDS011;22448;51.298;6.430;2022-08-25T04:58:42;14.40;;;4.07;;
35969;SDS011;22448;51.298;6.430;2022-08-25T05:01:10;14.57;;;4.70;;
35969;SDS011;22448;51.298;6.430;2022-08-25T05:03:44;9.65;;;3.95;;
35969;SDS011;22448;51.298;6.430;2022-08-25T05:06:12;13.13;;;4.78;;
35969;SDS011;22448;51.298;6.430;2022-08-25T05:08:41;9.00;;;4.82;;
35969;SDS011;22448;51.298;6.430;2022-08-25T05:11:12;14.18;;;4.85;;
35969;SDS011;22448;51.298;6.430;2022-08-25T05:13:41;16.13;;;4.72;;
35969;SDS011;22448;51.298;6.430;2022-08-25T05:16:16;13.23;;;4.30;;
35969;SDS011;22448;51.298;6.430;2022-08-25T05:18:45;12.13;;;5.38;;
35969;SDS011;22448;51.298;6.430;2022-08-25T05:21:13;9.07;;;4.57;;
35969;SDS011;22448;51.298;6.430;2022-08-25T05:26:14;13.02;;;4.03;;
35969;SDS011;22448;51.298;6.430;2022-08-25T05:31:14;15.32;;;4.93;;
35969;SDS011;22448;51.298;6.430;2022-08-25T05:33:42;8.57;;;4.72;;
35969;SDS011;22448;51.298;6.430;2022-08-25T05:36:10;11.05;;;4.80;;
35969;SDS011;22448;51.298;6.430;2022-08-25T05:38:38;11.77;;;4.18;;
35969;SDS011;22448;51.298;6.430;2022-08-25T05:41:08;12.02;;;4.20;;
35969;SDS011;22448;51.298;6.430;2022-08-25T05:43:38;12.65;;;4.70;;
35969;SDS011;22448;51.298;6.430;2022-08-25T05:46:06;12.77;;;4.45;;
35969;SDS011;22448;51.298;6.430;2022-08-25T05:48:34;14.80;;;4.72;;
35969;SDS011;22448;51.298;6.430;2022-08-25T05:51:03;18.98;;;5.22;;
35969;SDS011;22448;51.298;6.430;2022-08-25T05:53:32;18.58;;;4.60;;
35969;SDS011;22448;51.298;6.430;2022-08-25T05:56:00;11.90;;;4.50;;
35969;SDS011;22448;51.298;6.430;2022-08-25T05:58:28;10.25;;;4.68;;
35969;SDS011;22448;51.298;6.430;2022-08-25T06:00:56;7.75;;;4.35;;
35969;SDS011;22448;51.298;6.430;2022-08-25T06:03:45;14.50;;;4.53;;
35969;SDS011;22448;51.298;6.430;2022-08-25T06:06:13;19.77;;;4.68;;
35969;SDS011;22448;51.298;6.430;2022-08-25T06:08:42;10.63;;;4.53;;
35969;SDS011;22448;51.298;6.430;2022-08-25T06:11:10;14.48;;;4.50;;
35969;SDS011;22448;51.298;6.430;2022-08-25T06:13:39;13.50;;;4.47;;
35969;SDS011;22448;51.298;6.430;2022-08-25T06:16:06;14.88;;;4.30;;
35969;SDS011;22448;51.298;6.430;2022-08-25T06:18:33;21.83;;;4.70;;
35969;SDS011;22448;51.298;6.430;2022-08-25T06:21:08;12.70;;;4.25;;
35969;SDS011;22448;51.298;6.430;2022-08-25T06:23:36;12.93;;;3.50;;
35969;SDS011;22448;51.298;6.430;2022-08-25T06:26:04;14.70;;;3.95;;
35969;SDS011;22448;51.298;6.430;2022-08-25T06:28:31;15.02;;;4.05;;
35969;SDS011;22448;51.298;6.430;2022-08-25T06:30:59;15.38;;;3.63;;
35969;SDS011;22448;51.298;6.430;2022-08-25T06:33:27;10.55;;;3.78;;
35969;SDS011;22448;51.298;6.430;2022-08-25T06:35:54;18.75;;;4.00;;
35969;SDS011;22448;51.298;6.430;2022-08-25T06:38:22;7.93;;;3.33;;
35969;SDS011;22448;51.298;6.430;2022-08-25T06:40:49;10.82;;;3.55;;
35969;SDS011;22448;51.298;6.430;2022-08-25T06:43:18;9.80;;;3.35;;
35969;SDS011;22448;51.298;6.430;2022-08-25T06:45:45;14.70;;;3.58;;
35969;SDS011;22448;51.298;6.430;2022-08-25T06:48:13;14.32;;;3.80;;
35969;SDS011;22448;51.298;6.430;2022-08-25T06:50:41;8.43;;;3.33;;
35969;SDS011;22448;51.298;6.430;2022-08-25T06:53:10;11.35;;;3.78;;
35969;SDS011;22448;51.298;6.430;2022-08-25T06:55:37;6.10;;;3.45;;
35969;SDS011;22448;51.298;6.430;2022-08-25T06:58:05;10.23;;;3.85;;
35969;SDS011;22448;51.298;6.430;2022-08-25T07:00:36;9.52;;;3.75;;
35969;SDS011;22448;51.298;6.430;2022-08-25T07:03:04;14.60;;;3.70;;
35969;SDS011;22448;51.298;6.430;2022-08-25T07:05:32;20.35;;;3.65;;
35969;SDS011;22448;51.298;6.430;2022-08-25T07:08:09;13.00;;;3.45;;
35969;SDS011;22448;51.298;6.430;2022-08-25T07:10:37;11.63;;;3.78;;
35969;SDS011;22448;51.298;6.430;2022-08-25T07:13:04;21.67;;;3.83;;
35969;SDS011;22448;51.298;6.430;2022-08-25T07:15:31;13.35;;;3.85;;
35969;SDS011;22448;51.298;6.430;2022-08-25T07:18:03;8.60;;;3.70;;
35969;SDS011;22448;51.298;6.430;2022-08-25T07:20:34;11.02;;;3.60;;
35969;SDS011;22448;51.298;6.430;2022-08-25T07:23:01;8.68;;;3.17;;
35969;SDS011;22448;51.298;6.430;2022-08-25T07:25:28;9.60;;;3.60;;
35969;SDS011;22448;51.298;6.430;2022-08-25T07:27:56;8.85;;;3.72;;
35969;SDS011;22448;51.298;6.430;2022-08-25T07:30:24;7.45;;;3.10;;
35969;SDS011;22448;51.298;6.430;2022-08-25T07:32:51;8.45;;;3.80;;
35969;SDS011;22448;51.298;6.430;2022-08-25T07:35:21;10.23;;;3.78;;
35969;SDS011;22448;51.298;6.430;2022-08-25T07:37:52;14.77;;;3.65;;
35969;SDS011;22448;51.298;6.430;2022-08-25T07:42:56;7.32;;;3.20;;
35969;SDS011;22448;51.298;6.430;2022-08-25T07:45:26;5.88;;;3.13;;
35969;SDS011;22448;51.298;6.430;2022-08-25T07:47:56;12.23;;;3.47;;
35969;SDS011;22448;51.298;6.430;2022-08-25T07:50:28;11.32;;;3.08;;
35969;SDS011;22448;51.298;6.430;2022-08-25T07:52:57;7.95;;;3.20;;
35969;SDS011;22448;51.298;6.430;2022-08-25T07:55:25;12.00;;;3.25;;
35969;SDS011;22448;51.298;6.430;2022-08-25T07:57:54;8.25;;;3.58;;
35969;SDS011;22448;51.298;6.430;2022-08-25T08:00:23;9.68;;;3.42;;
35969;SDS011;22448;51.298;6.430;2022-08-25T08:02:53;11.85;;;3.88;;
35969;SDS011;22448;51.298;6.430;2022-08-25T08:05:21;8.43;;;3.63;;
35969;SDS011;22448;51.298;6.430;2022-08-25T08:07:50;10.35;;;3.88;;
35969;SDS011;22448;51.298;6.430;2022-08-25T08:10:18;15.20;;;3.15;;
35969;SDS011;22448;51.298;6.430;2022-08-25T08:13:05;16.65;;;3.30;;
35969;SDS011;22448;51.298;6.430;2022-08-25T08:15:34;8.65;;;3.17;;
35969;SDS011;22448;51.298;6.430;2022-08-25T08:18:02;12.05;;;3.97;;
35969;SDS011;22448;51.298;6.430;2022-08-25T08:20:32;14.13;;;3.55;;
35969;SDS011;22448;51.298;6.430;2022-08-25T08:23:09;9.48;;;3.80;;
35969;SDS011;22448;51.298;6.430;2022-08-25T08:25:36;15.98;;;4.13;;
35969;SDS011;22448;51.298;6.430;2022-08-25T08:28:03;16.20;;;3.15;;
35969;SDS011;22448;51.298;6.430;2022-08-25T08:30:32;7.43;;;3.60;;
35969;SDS011;22448;51.298;6.430;2022-08-25T08:33:02;6.38;;;3.70;;
35969;SDS011;22448;51.298;6.430;2022-08-25T08:35:37;10.57;;;3.58;;
35969;SDS011;22448;51.298;6.430;2022-08-25T08:38:05;13.15;;;3.67;;
35969;SDS011;22448;51.298;6.430;2022-08-25T08:40:44;8.45;;;3.58;;
35969;SDS011;22448;51.298;6.430;2022-08-25T08:43:48;14.70;;;4.18;;
35969;SDS011;22448;51.298;6.430;2022-08-25T08:49:39;16.10;;;3.85;;
35969;SDS011;22448;51.298;6.430;2022-08-25T08:52:43;14.13;;;4.20;;
35969;SDS011;22448;51.298;6.430;2022-08-25T08:55:27;22.52;;;4.00;;
35969;SDS011;22448;51.298;6.430;2022-08-25T08:57:59;18.17;;;3.80;;
35969;SDS011;22448;51.298;6.430;2022-08-25T09:03:05;7.03;;;3.67;;
35969;SDS011;22448;51.298;6.430;2022-08-25T09:05:40;9.05;;;3.40;;
35969;SDS011;22448;51.298;6.430;2022-08-25T09:08:13;10.65;;;4.00;;
35969;SDS011;22448;51.298;6.430;2022-08-25T09:16:27;11.68;;;3.22;;
35969;SDS011;22448;51.298;6.430;2022-08-25T09:19:26;10.82;;;3.30;;
35969;SDS011;22448;51.298;6.430;2022-08-25T09:22:23;10.18;;;3.10;;
35969;SDS011;22448;51.298;6.430;2022-08-25T09:28:08;7.10;;;3.38;;
35969;SDS011;22448;51.298;6.430;2022-08-25T09:30:59;9.07;;;3.22;;
35969;SDS011;22448;51.298;6.430;2022-08-25T09:33:31;12.60;;;3.50;;
35969;SDS011;22448;51.298;6.430;2022-08-25T09:36:01;9.35;;;3.47;;
35969;SDS011;22448;51.298;6.430;2022-08-25T09:38:34;12.25;;;3.55;;
35969;SDS011;22448;51.298;6.430;2022-08-25T09:41:01;6.60;;;3.47;;
35969;SDS011;22448;51.298;6.430;2022-08-25T09:43:33;9.93;;;3.65;;
35969;SDS011;22448;51.298;6.430;2022-08-25T09:46:11;12.20;;;3.90;;
35969;SDS011;22448;51.298;6.430;2022-08-25T09:51:30;12.60;;;3.70;;
35969;SDS011;22448;51.298;6.430;2022-08-25T09:56:47;10.50;;;3.53;;
35969;SDS011;22448;51.298;6.430;2022-08-25T09:59:19;10.07;;;3.42;;
35969;SDS011;22448;51.298;6.430;2022-08-25T10:02:02;7.72;;;3.38;;
35969;SDS011;22448;51.298;6.430;2022-08-25T10:04:51;11.25;;;3.45;;
35969;SDS011;22448;51.298;6.430;2022-08-25T10:09:56;7.40;;;3.47;;
35969;SDS011;22448;51.298;6.430;2022-08-25T10:12:34;7.90;;;3.05;;
35969;SDS011;22448;51.298;6.430;2022-08-25T10:17:56;13.85;;;3.92;;
35969;SDS011;22448;51.298;6.430;2022-08-25T10:20:42;17.35;;;3.63;;
35969;SDS011;22448;51.298;6.430;2022-08-25T10:23:26;12.15;;;3.75;;
35969;SDS011;22448;51.298;6.430;2022-08-25T10:25:57;11.02;;;3.33;;
35969;SDS011;22448;51.298;6.430;2022-08-25T10:28:40;8.57;;;3.92;;
35969;SDS011;22448;51.298;6.430;2022-08-25T10:31:20;8.10;;;3.42;;
35969;SDS011;22448;51.298;6.430;2022-08-25T10:34:09;7.53;;;3.60;;
35969;SDS011;22448;51.298;6.430;2022-08-25T10:45:44;10.73;;;3.55;;
35969;SDS011;22448;51.298;6.430;2022-08-25T10:54:06;7.00;;;3.17;;
35969;SDS011;22448;51.298;6.430;2022-08-25T10:56:39;10.50;;;3.28;;
35969;SDS011;22448;51.298;6.430;2022-08-25T11:04:35;6.63;;;3.27;;
35969;SDS011;22448;51.298;6.430;2022-08-25T11:07:19;6.78;;;3.40;;
35969;SDS011;22448;51.298;6.430;2022-08-25T11:09:52;7.03;;;3.10;;
35969;SDS011;22448;51.298;6.430;2022-08-25T11:12:34;6.60;;;3.10;;
35969;SDS011;22448;51.298;6.430;2022-08-25T11:15:27;11.07;;;3.63;;
35969;SDS011;22448;51.298;6.430;2022-08-25T11:20:34;12.27;;;3.28;;
35969;SDS011;22448;51.298;6.430;2022-08-25T11:23:43;3.38;;;2.72;;
35969;SDS011;22448;51.298;6.430;2022-08-25T11:26:20;6.20;;;2.88;;
35969;SDS011;22448;51.298;6.430;2022-08-25T11:29:09;5.53;;;2.92;;
35969;SDS011;22448;51.298;6.430;2022-08-25T11:31:42;5.57;;;2.88;;
35969;SDS011;22448;51.298;6.430;2022-08-25T11:34:19;10.55;;;3.22;;
35969;SDS011;22448;51.298;6.430;2022-08-25T11:36:54;10.68;;;2.78;;
35969;SDS011;22448;51.298;6.430;2022-08-25T11:48:22;4.82;;;2.95;;
35969;SDS011;22448;51.298;6.430;2022-08-25T11:51:03;6.15;;;2.67;;
35969;SDS011;22448;51.298;6.430;2022-08-25T11:53:36;7.50;;;2.80;;
35969;SDS011;22448;51.298;6.430;2022-08-25T11:59:00;8.45;;;3.08;;
35969;SDS011;22448;51.298;6.430;2022-08-25T12:04:09;8.32;;;2.83;;
35969;SDS011;22448;51.298;6.430;2022-08-25T12:09:28;8.85;;;3.05;;
35969;SDS011;22448;51.298;6.430;2022-08-25T12:11:56;5.05;;;2.38;;
35969;SDS011;22448;51.298;6.430;2022-08-25T12:19:23;11.13;;;2.33;;
35969;SDS011;22448;51.298;6.430;2022-08-25T12:29:54;6.75;;;2.78;;
35969;SDS011;22448;51.298;6.430;2022-08-25T12:41:15;9.82;;;2.30;;
35969;SDS011;22448;51.298;6.430;2022-08-25T12:43:45;7.55;;;2.00;;
35969;SDS011;22448;51.298;6.430;2022-08-25T12:48:56;3.15;;;1.65;;
35969;SDS011;22448;51.298;6.430;2022-08-25T12:51:47;3.28;;;1.98;;
35969;SDS011;22448;51.298;6.430;2022-08-25T12:57:21;7.05;;;2.45;;
35969;SDS011;22448;51.298;6.430;2022-08-25T13:05:58;5.90;;;2.83;;
35969;SDS011;22448;51.298;6.430;2022-08-25T13:11:53;9.15;;;2.67;;
35969;SDS011;22448;51.298;6.430;2022-08-25T13:17:05;7.53;;;2.03;;
35969;SDS011;22448;51.298;6.430;2022-08-25T13:19:35;5.72;;;2.28;;
35969;SDS011;22448;51.298;6.430;2022-08-25T13:22:09;12.32;;;1.92;;
35969;SDS011;22448;51.298;6.430;2022-08-25T13:24:44;4.25;;;1.80;;
35969;SDS011;22448;51.298;6.430;2022-08-25T13:27:25;5.00;;;2.05;;
35969;SDS011;22448;51.298;6.430;2022-08-25T13:29:57;7.72;;;1.45;;
35969;SDS011;22448;51.298;6.430;2022-08-25T13:32:33;4.68;;;2.10;;
35969;SDS011;22448;51.298;6.430;2022-08-25T13:35:07;6.75;;;2.40;;
35969;SDS011;22448;51.298;6.430;2022-08-25T13:37:45;7.22;;;2.17;;
35969;SDS011;22448;51.298;6.430;2022-08-25T13:43:03;7.20;;;2.10;;
35969;SDS011;22448;51.298;6.430;2022-08-25T13:45:37;4.80;;;2.00;;
35969;SDS011;22448;51.298;6.430;2022-08-25T13:48:10;9.60;;;2.05;;
35969;SDS011;22448;51.298;6.430;2022-08-25T13:50:48;5.17;;;1.90;;
35969;SDS011;22448;51.298;6.430;2022-08-25T13:53:22;7.80;;;2.03;;
35969;SDS011;22448;51.298;6.430;2022-08-25T13:55:52;6.75;;;1.98;;
35969;SDS011;22448;51.298;6.430;2022-08-25T13:58:33;6.95;;;2.03;;
35969;SDS011;22448;51.298;6.430;2022-08-25T14:07:06;9.73;;;2.00;;
35969;SDS011;22448;51.298;6.430;2022-08-25T14:09:50;2.63;;;1.60;;
35969;SDS011;22448;51.298;6.430;2022-08-25T14:17:44;6.00;;;1.52;;
35969;SDS011;22448;51.298;6.430;2022-08-25T14:20:16;3.42;;;1.55;;
35969;SDS011;22448;51.298;6.430;2022-08-25T14:22:51;4.45;;;1.98;;
35969;SDS011;22448;51.298;6.430;2022-08-25T14:25:24;4.85;;;1.60;;
35969;SDS011;22448;51.298;6.430;2022-08-25T14:27:57;3.42;;;2.10;;
35969;SDS011;22448;51.298;6.430;2022-08-25T14:30:38;5.68;;;1.90;;
35969;SDS011;22448;51.298;6.430;2022-08-25T14:33:11;3.30;;;2.17;;
35969;SDS011;22448;51.298;6.430;2022-08-25T14:35:40;4.90;;;2.05;;
35969;SDS011;22448;51.298;6.430;2022-08-25T14:40:40;8.43;;;2.05;;
35969;SDS011;22448;51.298;6.430;2022-08-25T14:43:07;6.32;;;1.85;;
35969;SDS011;22448;51.298;6.430;2022-08-25T14:45:36;7.72;;;2.20;;
35969;SDS011;22448;51.298;6.430;2022-08-25T14:48:07;4.85;;;2.13;;
35969;SDS011;22448;51.298;6.430;2022-08-25T14:50:36;15.18;;;2.20;;
35969;SDS011;22448;51.298;6.430;2022-08-25T14:53:07;3.58;;;1.88;;
35969;SDS011;22448;51.298;6.430;2022-08-25T14:55:35;3.92;;;2.13;;
35969;SDS011;22448;51.298;6.430;2022-08-25T14:58:05;3.80;;;1.70;;
35969;SDS011;22448;51.298;6.430;2022-08-25T15:00:34;8.48;;;2.00;;
35969;SDS011;22448;51.298;6.430;2022-08-25T15:03:13;5.35;;;1.92;;
35969;SDS011;22448;51.298;6.430;2022-08-25T15:05:43;2.67;;;1.70;;
35969;SDS011;22448;51.298;6.430;2022-08-25T15:08:10;5.47;;;1.92;;
35969;SDS011;22448;51.298;6.430;2022-08-25T15:10:59;9.35;;;2.10;;
35969;SDS011;22448;51.298;6.430;2022-08-25T15:13:26;4.88;;;1.80;;
35969;SDS011;22448;51.298;6.430;2022-08-25T15:15:53;2.85;;;1.98;;
35969;SDS011;22448;51.298;6.430;2022-08-25T15:18:23;5.70;;;2.00;;
35969;SDS011;22448;51.298;6.430;2022-08-25T15:20:51;7.22;;;1.88;;
35969;SDS011;22448;51.298;6.430;2022-08-25T15:23:18;3.63;;;1.85;;
35969;SDS011;22448;51.298;6.430;2022-08-25T15:25:48;5.93;;;1.80;;
35969;SDS011;22448;51.298;6.430;2022-08-25T15:28:18;3.25;;;1.60;;
35969;SDS011;22448;51.298;6.430;2022-08-25T15:30:48;3.97;;;1.80;;
35969;SDS011;22448;51.298;6.430;2022-08-25T15:33:16;4.93;;;1.70;;
35969;SDS011;22448;51.298;6.430;2022-08-25T15:35:43;2.55;;;1.40;;
35969;SDS011;22448;51.298;6.430;2022-08-25T15:38:10;8.82;;;2.10;;
35969;SDS011;22448;51.298;6.430;2022-08-25T15:40:38;10.27;;;2.00;;
35969;SDS011;22448;51.298;6.430;2022-08-25T15:43:05;8.13;;;2.03;;
35969;SDS011;22448;51.298;6.430;2022-08-25T15:45:33;9.75;;;3.63;;
35969;SDS011;22448;51.298;6.430;2022-08-25T15:48:01;4.50;;;2.38;;
35969;SDS011;22448;51.298;6.430;2022-08-25T15:50:32;7.78;;;2.40;;
35969;SDS011;22448;51.298;6.430;2022-08-25T15:52:59;8.85;;;2.45;;
35969;SDS011;22448;51.298;6.430;2022-08-25T15:55:26;5.45;;;2.58;;
35969;SDS011;22448;51.298;6.430;2022-08-25T15:57:54;9.27;;;2.65;;
35969;SDS011;22448;51.298;6.430;2022-08-25T16:00:21;4.13;;;2.42;;
35969;SDS011;22448;51.298;6.430;2022-08-25T16:02:48;5.75;;;2.28;;
35969;SDS011;22448;51.298;6.430;2022-08-25T16:05:17;4.00;;;2.00;;
35969;SDS011;22448;51.298;6.430;2022-08-25T16:07:51;3.92;;;2.58;;
35969;SDS011;22448;51.298;6.430;2022-08-25T16:10:18;16.10;;;2.40;;
35969;SDS011;22448;51.298;6.430;2022-08-25T16:12:45;6.20;;;2.28;;
35969;SDS011;22448;51.298;6.430;2022-08-25T16:15:12;5.75;;;2.42;;
35969;SDS011;22448;51.298;6.430;2022-08-25T16:17:39;8.02;;;2.33;;
35969;SDS011;22448;51.298;6.430;2022-08-25T16:20:11;4.68;;;2.50;;
35969;SDS011;22448;51.298;6.430;2022-08-25T16:22:43;8.68;;;2.35;;
35969;SDS011;22448;51.298;6.430;2022-08-25T16:25:10;6.47;;;2.28;;
35969;SDS011;22448;51.298;6.430;2022-08-25T16:27:37;4.68;;;2.35;;
35969;SDS011;22448;51.298;6.430;2022-08-25T16:30:08;3.15;;;2.10;;
35969;SDS011;22448;51.298;6.430;2022-08-25T16:32:43;3.67;;;1.95;;
35969;SDS011;22448;51.298;6.430;2022-08-25T16:35:12;5.68;;;1.95;;
35969;SDS011;22448;51.298;6.430;2022-08-25T16:37:39;6.45;;;2.47;;
35969;SDS011;22448;51.298;6.430;2022-08-25T16:40:08;2.35;;;2.00;;
35969;SDS011;22448;51.298;6.430;2022-08-25T16:42:40;6.78;;;2.28;;
35969;SDS011;22448;51.298;6.430;2022-08-25T16:45:07;11.48;;;2.10;;
35969;SDS011;22448;51.298;6.430;2022-08-25T16:47:35;7.35;;;2.40;;
35969;SDS011;22448;51.298;6.430;2022-08-25T16:50:04;4.32;;;2.05;;
35969;SDS011;22448;51.298;6.430;2022-08-25T16:52:36;5.18;;;2.30;;
35969;SDS011;22448;51.298;6.430;2022-08-25T16:55:25;2.55;;;1.98;;
35969;SDS011;22448;51.298;6.430;2022-08-25T16:58:05;4.90;;;2.10;;
35969;SDS011;22448;51.298;6.430;2022-08-25T17:00:34;6.38;;;1.92;;
35969;SDS011;22448;51.298;6.430;2022-08-25T17:03:03;5.50;;;2.08;;
35969;SDS011;22448;51.298;6.430;2022-08-25T17:05:31;6.43;;;2.20;;
35969;SDS011;22448;51.298;6.430;2022-08-25T17:08:04;4.50;;;2.20;;
35969;SDS011;22448;51.298;6.430;2022-08-25T17:10:51;3.55;;;2.00;;
35969;SDS011;22448;51.298;6.430;2022-08-25T17:13:18;3.90;;;1.92;;
35969;SDS011;22448;51.298;6.430;2022-08-25T17:15:46;10.20;;;2.17;;
35969;SDS011;22448;51.298;6.430;2022-08-25T17:18:18;5.15;;;2.20;;
35969;SDS011;22448;51.298;6.430;2022-08-25T17:20:45;4.07;;;2.15;;
35969;SDS011;22448;51.298;6.430;2022-08-25T17:23:16;7.22;;;1.70;;
35969;SDS011;22448;51.298;6.430;2022-08-25T17:25:46;9.65;;;2.13;;
35969;SDS011;22448;51.298;6.430;2022-08-25T17:28:15;7.95;;;2.15;;